Terminal Aerodrome Forecast
Issued by NWS Louisville, KY

Home | Current Version | Previous Version | Text Only | Print | Product List | Glossary On
Versions: 1 2 3 4 5 6 7 8 9 10 11 12 13
000
FTUS43 KLMK 270500
TAFLEX
TAF
KLEX 270520Z 2706/2806 35006KT 6SM BR FEW030 SCT250
      TEMPO 2706/2710 5SM BR
     FM271600 34009KT P6SM BKN035
     FM280100 33007KT P6SM SKC=

USA.gov is the U.S. government's official web portal to all federal, state and local government web resources and services.